createdAt,value
2023-02-16T00:00:02.796Z,48.95
2023-02-16T00:03:04.521Z,45.00
2023-02-16T00:06:06.324Z,51.53
2023-02-16T00:09:07.932Z,50.07
2023-02-16T00:12:37.252Z,49.80
2023-02-16T00:15:40.079Z,45.78
2023-02-16T00:18:41.728Z,46.55
2023-02-16T00:21:43.348Z,46.47
2023-02-16T00:24:44.924Z,48.77
2023-02-16T00:27:46.657Z,43.60
2023-02-16T00:30:50.268Z,50.08
2023-02-16T00:33:51.981Z,52.85
2023-02-16T00:36:54.367Z,48.38
2023-02-16T00:39:55.993Z,47.07
2023-02-16T00:42:57.879Z,48.83
2023-02-16T00:45:59.770Z,48.67
2023-02-16T00:49:01.469Z,43.53
2023-02-16T00:52:31.318Z,44.35
2023-02-16T00:55:35.186Z,45.10
2023-02-16T00:58:37.834Z,40.05
2023-02-16T01:01:39.584Z,47.75
2023-02-16T01:04:41.347Z,47.30
2023-02-16T01:08:01.731Z,43.92
2023-02-16T01:11:07.879Z,44.93
2023-02-16T01:14:12.422Z,43.05
2023-02-16T01:17:14.100Z,45.95
2023-02-16T01:20:21.407Z,46.42
2023-02-16T01:23:23.037Z,45.28
2023-02-16T01:26:25.111Z,41.87
2023-02-16T01:29:26.848Z,42.88
2023-02-16T01:32:28.448Z,44.05
2023-02-16T01:35:33.831Z,47.25
2023-02-16T01:38:35.552Z,43.28
2023-02-16T01:42:14.714Z,44.47
2023-02-16T01:45:22.056Z,44.65
2023-02-16T01:48:29.976Z,46.47
2023-02-16T01:51:46.334Z,45.63
2023-02-16T01:54:58.086Z,42.33
2023-02-16T01:58:14.093Z,45.20
2023-02-16T02:01:27.804Z,45.55
2023-02-16T02:05:00.766Z,47.05
2023-02-16T02:08:39.872Z,48.65
2023-02-16T02:12:00.519Z,43.40
2023-02-16T02:15:02.108Z,43.53
2023-02-16T02:18:03.948Z,41.63
2023-02-16T02:22:01.763Z,39.85
2023-02-16T02:25:40.752Z,43.97
2023-02-16T02:28:57.168Z,40.55
2023-02-16T02:32:37.215Z,42.17
2023-02-16T02:36:03.086Z,40.80
2023-02-16T02:39:34.743Z,41.97
2023-02-16T02:42:36.297Z,38.88
2023-02-16T02:45:49.012Z,42.92
2023-02-16T02:48:51.404Z,45.60
2023-02-16T02:51:53.056Z,46.88
2023-02-16T02:55:13.257Z,41.17
2023-02-16T02:58:34.537Z,48.33
2023-02-16T03:01:40.323Z,53.22
2023-02-16T03:04:44.330Z,54.77
2023-02-16T03:07:49.271Z,42.88
2023-02-16T03:11:20.079Z,45.90
2023-02-16T03:14:27.302Z,45.42
2023-02-16T03:17:56.071Z,40.92
2023-02-16T03:21:17.675Z,45.03
2023-02-16T03:24:56.128Z,43.50
2023-02-16T03:28:18.966Z,44.15
2023-02-16T03:31:25.396Z,38.00
2023-02-16T03:34:29.179Z,40.80
2023-02-16T03:37:31.296Z,41.10
2023-02-16T03:40:35.071Z,37.25
2023-02-16T03:43:36.718Z,36.78
2023-02-16T03:46:38.319Z,35.63
2023-02-16T03:49:39.990Z,39.47
2023-02-16T03:52:41.697Z,43.97
2023-02-16T03:55:45.793Z,40.72
2023-02-16T03:58:47.380Z,38.83
2023-02-16T04:01:49.042Z,41.20
2023-02-16T04:04:50.754Z,39.10
2023-02-16T04:07:52.413Z,41.80
2023-02-16T04:10:57.541Z,39.60
2023-02-16T04:13:59.333Z,36.83
2023-02-16T04:17:01.058Z,40.25
2023-02-16T04:20:03.197Z,41.95
2023-02-16T04:23:05.283Z,41.03
2023-02-16T04:26:06.859Z,40.65
2023-02-16T04:29:08.426Z,42.80
2023-02-16T04:32:10.258Z,37.28
2023-02-16T04:35:12.092Z,39.10
2023-02-16T04:38:13.738Z,39.77
2023-02-16T04:41:15.328Z,39.13
2023-02-16T04:44:16.984Z,37.90
2023-02-16T04:47:18.999Z,36.58
2023-02-16T04:50:20.675Z,37.17
2023-02-16T04:53:22.405Z,40.27
2023-02-16T04:56:24.087Z,38.05
2023-02-16T04:59:26.477Z,43.33
2023-02-16T05:02:28.256Z,37.72
2023-02-16T05:05:31.609Z,40.65
2023-02-16T05:08:33.299Z,39.80
2023-02-16T05:11:53.573Z,44.90
2023-02-16T05:14:55.292Z,43.45
2023-02-16T05:17:56.914Z,42.08
2023-02-16T05:21:16.761Z,44.33
2023-02-16T05:24:18.395Z,38.97
2023-02-16T05:27:23.100Z,42.90
2023-02-16T05:30:24.827Z,40.92
2023-02-16T05:33:26.510Z,44.80
2023-02-16T05:36:28.211Z,46.47
2023-02-16T05:39:29.874Z,42.70
2023-02-16T05:42:31.593Z,44.20
2023-02-16T05:45:33.221Z,38.50
2023-02-16T05:48:34.900Z,39.17
2023-02-16T05:51:37.673Z,40.80
2023-02-16T05:54:39.348Z,45.20
2023-02-16T05:57:40.923Z,39.03
2023-02-16T06:00:42.672Z,38.60
2023-02-16T06:03:44.595Z,37.47
2023-02-16T06:06:46.332Z,39.97
2023-02-16T06:09:47.991Z,38.13
2023-02-16T06:12:49.588Z,40.90
2023-02-16T06:15:53.988Z,40.88
2023-02-16T06:18:56.548Z,40.53
2023-02-16T06:21:58.186Z,48.70
2023-02-16T06:24:59.797Z,43.67
2023-02-16T06:28:01.558Z,38.38
2023-02-16T06:31:03.911Z,38.88
2023-02-16T06:34:05.968Z,38.50
2023-02-16T06:37:08.118Z,35.72
2023-02-16T06:40:10.679Z,36.67
2023-02-16T06:43:12.372Z,37.05
2023-02-16T06:46:14.050Z,37.42
2023-02-16T06:49:20.883Z,38.88
2023-02-16T06:52:22.764Z,41.45
2023-02-16T06:55:24.581Z,42.53
2023-02-16T06:58:26.175Z,42.08
2023-02-16T07:01:27.895Z,41.85
2023-02-16T07:04:29.595Z,39.22
2023-02-16T07:07:31.821Z,40.80
2023-02-16T07:10:47.724Z,36.73
2023-02-16T07:13:50.658Z,44.70
2023-02-16T07:16:52.317Z,36.80
2023-02-16T07:19:54.215Z,39.63
2023-02-16T07:22:57.429Z,40.75
2023-02-16T07:25:59.125Z,40.33
2023-02-16T07:29:00.868Z,39.72
2023-02-16T07:32:03.728Z,35.10
2023-02-16T07:35:05.662Z,36.25
2023-02-16T07:38:07.812Z,36.22
2023-02-16T07:41:10.985Z,36.83
2023-02-16T07:44:12.965Z,35.70
2023-02-16T07:47:14.843Z,37.50
2023-02-16T07:50:16.593Z,37.78
2023-02-16T07:53:18.492Z,40.08
2023-02-16T07:56:32.013Z,35.03
2023-02-16T07:59:33.692Z,36.13
2023-02-16T08:02:36.027Z,35.55
2023-02-16T08:05:37.748Z,33.85
2023-02-16T08:08:39.931Z,33.40
2023-02-16T08:11:41.864Z,34.87
2023-02-16T08:14:44.462Z,32.92
2023-02-16T08:17:46.294Z,32.38
2023-02-16T08:21:03.340Z,33.88
2023-02-16T08:24:08.601Z,32.70
2023-02-16T08:27:10.967Z,32.47
2023-02-16T08:30:13.967Z,32.78
2023-02-16T08:33:15.646Z,35.15
2023-02-16T08:36:23.582Z,32.05
2023-02-16T08:39:27.553Z,33.42
2023-02-16T08:42:29.317Z,30.83
2023-02-16T08:45:31.852Z,30.65
2023-02-16T08:48:35.669Z,30.55
2023-02-16T08:51:42.268Z,32.33
2023-02-16T08:54:45.320Z,31.60
2023-02-16T08:57:46.915Z,29.77
2023-02-16T09:00:49.855Z,28.80
2023-02-16T09:03:52.633Z,31.23
2023-02-16T09:06:54.956Z,31.73
2023-02-16T09:09:56.634Z,30.85
2023-02-16T09:12:58.473Z,31.00
2023-02-16T09:16:05.789Z,34.28
2023-02-16T09:19:07.592Z,31.90
2023-02-16T09:22:09.232Z,32.20
2023-02-16T09:25:11.445Z,30.45
2023-02-16T09:28:13.843Z,37.37
2023-02-16T09:31:39.698Z,35.55
2023-02-16T09:34:42.273Z,33.70
2023-02-16T09:37:43.910Z,29.58
2023-02-16T09:40:45.760Z,31.33
2023-02-16T09:44:02.708Z,32.17
2023-02-16T09:47:11.469Z,33.35
2023-02-16T09:50:17.101Z,31.92
2023-02-16T09:53:30.516Z,32.45
2023-02-16T09:56:38.101Z,29.83
2023-02-16T09:59:48.717Z,33.83
2023-02-16T10:03:13.361Z,34.75
2023-02-16T10:06:23.991Z,33.15
2023-02-16T10:09:27.932Z,35.05
2023-02-16T10:12:40.665Z,36.70
2023-02-16T10:15:45.523Z,35.17
2023-02-16T10:18:49.708Z,35.13
2023-02-16T10:21:55.891Z,41.80
2023-02-16T10:25:09.723Z,38.10
2023-02-16T10:28:21.784Z,38.45
2023-02-16T10:31:28.006Z,37.90
2023-02-16T10:35:02.108Z,35.53
2023-02-16T10:38:06.762Z,37.22
2023-02-16T10:41:33.059Z,31.23
2023-02-16T10:44:40.318Z,30.30
2023-02-16T10:47:45.999Z,31.97
2023-02-16T10:51:09.364Z,32.08
2023-02-16T10:54:17.694Z,33.90
2023-02-16T10:57:33.007Z,31.90
2023-02-16T11:00:49.956Z,35.50
2023-02-16T11:03:53.352Z,29.87
2023-02-16T11:07:08.524Z,32.15
2023-02-16T11:10:22.930Z,36.47
2023-02-16T11:13:24.934Z,31.58
2023-02-16T11:16:26.592Z,34.63
2023-02-16T11:19:28.901Z,35.43
2023-02-16T11:22:39.343Z,50.47
2023-02-16T11:25:41.584Z,42.30
2023-02-16T11:28:48.691Z,46.13
2023-02-16T11:31:50.718Z,36.50
2023-02-16T11:34:53.696Z,39.70
2023-02-16T11:37:55.954Z,42.63
2023-02-16T11:41:00.705Z,39.83
2023-02-16T11:44:03.648Z,34.45
2023-02-16T11:47:20.596Z,28.92
2023-02-16T11:50:27.022Z,29.13
2023-02-16T11:53:34.634Z,26.30
2023-02-16T11:56:36.680Z,29.98
2023-02-16T11:59:40.195Z,29.92
2023-02-16T12:03:06.847Z,21.73
2023-02-16T12:06:31.058Z,22.87
2023-02-16T12:10:02.385Z,26.25
2023-02-16T12:13:28.476Z,25.42
2023-02-16T12:16:53.091Z,24.80
2023-02-16T12:20:36.570Z,28.23
2023-02-16T12:23:56.918Z,29.40
2023-02-16T12:27:02.396Z,30.95
2023-02-16T12:30:13.253Z,29.13
2023-02-16T12:33:41.792Z,35.80
2023-02-16T12:37:09.397Z,32.03
2023-02-16T12:40:20.558Z,28.07
2023-02-16T12:43:48.764Z,32.35
2023-02-16T12:46:58.206Z,28.25
2023-02-16T12:50:19.963Z,30.08
2023-02-16T12:53:30.950Z,34.13
2023-02-16T12:56:38.864Z,32.87
2023-02-16T13:00:18.938Z,47.45
2023-02-16T13:03:44.648Z,35.20
2023-02-16T13:07:05.389Z,32.42
2023-02-16T13:10:30.682Z,42.20
2023-02-16T13:13:34.674Z,36.27
2023-02-16T13:16:52.164Z,32.22
2023-02-16T13:19:54.101Z,35.83
2023-02-16T13:23:01.955Z,36.00
2023-02-16T13:26:21.819Z,35.50
2023-02-16T13:29:45.231Z,37.57
2023-02-16T13:32:53.982Z,37.05
2023-02-16T13:36:32.197Z,36.97
2023-02-16T13:39:52.217Z,34.60
2023-02-16T13:43:32.670Z,36.67
2023-02-16T13:46:41.643Z,37.43
2023-02-16T13:49:43.651Z,35.95
2023-02-16T13:52:45.426Z,36.95
2023-02-16T13:55:48.174Z,37.67
2023-02-16T13:58:52.904Z,35.90
2023-02-16T14:01:55.923Z,34.73
2023-02-16T14:05:00.264Z,32.97
2023-02-16T14:08:22.861Z,34.17
2023-02-16T14:11:24.526Z,32.30
2023-02-16T14:14:38.002Z,32.30
2023-02-16T14:17:39.751Z,31.43
2023-02-16T14:20:41.361Z,34.15
2023-02-16T14:23:43.489Z,30.58
2023-02-16T14:27:02.886Z,32.05
2023-02-16T14:30:12.723Z,34.22
2023-02-16T14:33:17.216Z,39.27
2023-02-16T14:36:21.873Z,32.25
2023-02-16T14:39:24.844Z,33.05
2023-02-16T14:42:30.759Z,36.17
2023-02-16T14:46:10.861Z,38.50
2023-02-16T14:49:28.361Z,31.37
2023-02-16T14:52:37.277Z,31.83
2023-02-16T14:55:48.006Z,36.35
2023-02-16T14:59:18.939Z,29.50
2023-02-16T15:02:39.363Z,35.92
2023-02-16T15:05:41.441Z,36.23
2023-02-16T15:08:48.567Z,33.13
2023-02-16T15:12:16.080Z,34.58
2023-02-16T15:15:27.717Z,31.35
2023-02-16T15:18:38.577Z,33.25
2023-02-16T15:21:40.244Z,36.93
2023-02-16T15:24:41.873Z,36.60
2023-02-16T15:28:12.443Z,33.40
2023-02-16T15:31:23.999Z,36.03
2023-02-16T15:34:33.316Z,33.50
2023-02-16T15:37:37.868Z,40.20
2023-02-16T15:40:40.160Z,37.17
2023-02-16T15:43:47.772Z,44.20
2023-02-16T15:46:49.467Z,36.63
2023-02-16T15:49:52.068Z,39.78
2023-02-16T15:52:54.167Z,46.23
2023-02-16T15:55:56.132Z,42.47
2023-02-16T15:59:01.643Z,47.40
2023-02-16T16:02:36.624Z,47.13
2023-02-16T16:05:42.086Z,47.40
2023-02-16T16:08:44.028Z,45.60
2023-02-16T16:11:46.574Z,52.72
2023-02-16T16:14:55.480Z,49.42
2023-02-16T16:17:59.881Z,53.08
2023-02-16T16:21:02.722Z,52.15
2023-02-16T16:24:10.899Z,54.17
2023-02-16T16:27:13.047Z,47.60
2023-02-16T16:30:20.996Z,49.58
2023-02-16T16:33:22.752Z,51.55
2023-02-16T16:36:36.926Z,49.47
2023-02-16T16:39:41.547Z,52.67
2023-02-16T16:43:03.132Z,52.03
2023-02-16T16:46:11.189Z,62.20
2023-02-16T16:49:16.116Z,61.33
2023-02-16T16:52:41.601Z,55.55
2023-02-16T16:55:43.244Z,45.23
2023-02-16T16:58:58.056Z,43.35
2023-02-16T17:01:59.671Z,43.20
2023-02-16T17:05:01.276Z,46.03
2023-02-16T17:08:02.986Z,47.80
2023-02-16T17:11:05.245Z,44.67
2023-02-16T17:14:10.871Z,40.08
2023-02-16T17:17:13.804Z,38.30
2023-02-16T17:20:16.040Z,40.33
2023-02-16T17:23:20.068Z,38.75
2023-02-16T17:26:22.572Z,38.13
2023-02-16T17:29:24.193Z,38.95
2023-02-16T17:32:25.925Z,39.80
2023-02-16T17:35:28.095Z,41.10
2023-02-16T17:38:30.174Z,44.10
2023-02-16T17:41:32.621Z,40.83
2023-02-16T17:44:34.226Z,43.50
2023-02-16T17:47:36.080Z,44.90
2023-02-16T17:50:38.702Z,41.60
2023-02-16T17:53:41.219Z,44.47
2023-02-16T17:56:46.978Z,43.63
2023-02-16T17:59:48.702Z,45.15
2023-02-16T18:02:50.499Z,43.65
2023-02-16T18:05:52.371Z,43.17
2023-02-16T18:08:53.949Z,43.13
2023-02-16T18:11:55.589Z,43.83
2023-02-16T18:14:57.174Z,47.53
2023-02-16T18:17:58.928Z,46.25
2023-02-16T18:21:01.619Z,50.92
2023-02-16T18:24:03.250Z,47.35
2023-02-16T18:27:05.369Z,50.80
2023-02-16T18:30:07.521Z,44.40
2023-02-16T18:33:09.206Z,46.85
2023-02-16T18:36:10.822Z,41.08
2023-02-16T18:39:12.499Z,44.40
2023-02-16T18:42:14.282Z,41.53
2023-02-16T18:45:16.083Z,43.70
2023-02-16T18:48:17.772Z,46.28
2023-02-16T18:51:23.516Z,48.03
2023-02-16T18:54:25.172Z,43.72
2023-02-16T18:57:26.808Z,44.17
2023-02-16T19:00:28.948Z,46.78
2023-02-16T19:03:30.617Z,44.53
2023-02-16T19:06:32.783Z,44.70
2023-02-16T19:09:34.583Z,52.22
2023-02-16T19:12:37.567Z,49.90
2023-02-16T19:15:39.339Z,51.17
2023-02-16T19:18:41.185Z,50.38
2023-02-16T19:21:44.305Z,50.28
2023-02-16T19:24:46.061Z,49.90
2023-02-16T19:27:48.160Z,62.63
2023-02-16T19:30:50.273Z,52.42
2023-02-16T19:33:52.650Z,47.13
2023-02-16T19:36:54.334Z,49.35
2023-02-16T19:39:56.044Z,45.38
2023-02-16T19:42:57.669Z,46.80
2023-02-16T19:45:59.348Z,47.88
2023-02-16T19:49:01.517Z,45.75
2023-02-16T19:52:04.292Z,43.72
2023-02-16T19:55:06.287Z,45.97
2023-02-16T19:58:08.120Z,45.53
2023-02-16T20:01:16.291Z,46.42
2023-02-16T20:04:17.997Z,46.00
2023-02-16T20:07:19.627Z,46.10
2023-02-16T20:10:21.288Z,45.35
2023-02-16T20:13:22.959Z,42.77
2023-02-16T20:16:26.353Z,42.95
2023-02-16T20:19:28.053Z,46.47
2023-02-16T20:22:29.700Z,46.75
2023-02-16T20:25:31.293Z,46.03
2023-02-16T20:28:33.515Z,46.20
2023-02-16T20:31:58.775Z,44.80
2023-02-16T20:35:04.860Z,49.45
2023-02-16T20:38:06.667Z,45.63
2023-02-16T20:41:08.662Z,46.25
2023-02-16T20:44:11.179Z,49.67
2023-02-16T20:47:13.018Z,45.38
2023-02-16T20:50:15.082Z,47.40
2023-02-16T20:53:16.669Z,50.08
2023-02-16T20:56:23.105Z,47.38
2023-02-16T20:59:24.688Z,44.80
2023-02-16T21:02:26.477Z,48.95
2023-02-16T21:05:28.180Z,46.97
2023-02-16T21:08:29.778Z,46.45
2023-02-16T21:11:32.113Z,45.78
2023-02-16T21:14:33.718Z,47.67
2023-02-16T21:17:35.640Z,49.63
2023-02-16T21:20:37.420Z,55.92
2023-02-16T21:23:39.028Z,54.17
2023-02-16T21:26:40.709Z,53.17
2023-02-16T21:29:42.424Z,52.87
2023-02-16T21:32:44.033Z,56.03
2023-02-16T21:35:45.723Z,57.22
2023-02-16T21:38:47.560Z,55.55
2023-02-16T21:41:49.112Z,53.13
2023-02-16T21:45:10.623Z,54.43
2023-02-16T21:48:30.903Z,57.67
2023-02-16T21:51:38.388Z,58.55
2023-02-16T21:54:58.637Z,55.63
2023-02-16T21:58:00.443Z,58.35
2023-02-16T22:01:02.242Z,65.27
2023-02-16T22:04:04.573Z,56.55
2023-02-16T22:07:06.239Z,55.72
2023-02-16T22:10:09.470Z,59.20
2023-02-16T22:13:11.256Z,58.60
2023-02-16T22:16:17.034Z,54.70
2023-02-16T22:19:19.157Z,59.40
2023-02-16T22:22:20.852Z,61.38
2023-02-16T22:25:23.187Z,60.17
2023-02-16T22:28:24.815Z,57.10
2023-02-16T22:31:27.707Z,60.73
2023-02-16T22:34:29.467Z,57.47
2023-02-16T22:37:32.761Z,63.28
2023-02-16T22:40:34.335Z,58.60
2023-02-16T22:43:36.765Z,60.13
2023-02-16T22:46:38.839Z,60.93
2023-02-16T22:49:40.476Z,59.70
2023-02-16T22:52:42.065Z,59.33
2023-02-16T22:55:43.673Z,55.88
2023-02-16T22:58:46.354Z,55.40
2023-02-16T23:01:48.011Z,53.20
2023-02-16T23:04:49.579Z,50.45
2023-02-16T23:07:51.380Z,56.85
2023-02-16T23:11:02.003Z,52.30
2023-02-16T23:14:05.024Z,54.30
2023-02-16T23:17:07.358Z,54.70
2023-02-16T23:20:10.648Z,51.60
2023-02-16T23:23:13.257Z,56.97
2023-02-16T23:26:15.788Z,54.78
2023-02-16T23:29:18.066Z,53.63
2023-02-16T23:32:19.701Z,50.60
2023-02-16T23:35:21.570Z,52.38
2023-02-16T23:38:23.213Z,52.80
2023-02-16T23:41:24.835Z,49.70
2023-02-16T23:44:26.531Z,48.33
2023-02-16T23:47:28.180Z,44.77
2023-02-16T23:50:30.174Z,48.03
2023-02-16T23:53:31.953Z,48.45
2023-02-16T23:56:33.557Z,52.65
2023-02-16T23:59:35.298Z,53.90
